Terminal Aerodrome Forecast
Issued by NWS Twin Cities, MN

Home | Current Version | Previous Version | Graphics & Text | Print | Product List | Glossary On
Versions: 1 2 3 4 5 6 7 8 9 10 11 12 13 14 15 16
000
FTUS43 KMPX 141100
TAFEAU
TAF
KEAU 141140Z 1412/1512 36014G20KT P6SM OVC030
     FM141300 35014G20KT P6SM BKN035 OVC200
     FM141900 33013G18KT P6SM BKN080
     FM150100 32008KT P6SM SCT060
     FM150700 30004KT P6SM SKC=

USA.gov is the U.S. government's official web portal to all federal, state and local government web resources and services.